Time;durP1;ratioP1;P1;durP2;ratioP2;P2;SDS_P1;SDS_P2;PMS_P1;PMS_P2;Temp;Humidity;BMP_temperature;BMP_pressure;BME280_temperature;BME280_humidity;BME280_pressure;Samples;Min_cycle;Max_cycle;Signal;HPM_P1;HPM_P2
2022/05/25 00:00:10;;;;;;;14.53;11.65;;;;;;;14.24;72.46;96779.14;1814469;79;25740;-73
2022/05/25 00:02:39;;;;;;;13.05;11.43;;;;;;;14.21;72.57;96768.25;1814488;77;25790;-76
2022/05/25 00:05:09;;;;;;;13.60;11.40;;;;;;;14.21;72.63;96768.78;1814283;79;25759;-75
2022/05/25 00:07:35;;;;;;;16.85;12.47;;;;;;;14.20;72.62;96769.31;1814576;79;25674;-76
2022/05/25 00:10:03;;;;;;;14.07;11.33;;;;;;;14.19;72.64;96777.70;1814645;79;25733;-75
2022/05/25 00:12:29;;;;;;;16.25;11.60;;;;;;;14.17;72.63;96773.05;1814323;79;26213;-74
2022/05/25 00:14:56;;;;;;;14.38;11.45;;;;;;;14.10;72.60;96775.13;1814252;79;27352;-75
2022/05/25 00:17:23;;;;;;;17.48;12.23;;;;;;;13.98;72.75;96776.05;1805699;79;25815;-75
2022/05/25 00:20:01;;;;;;;13.48;11.18;;;;;;;13.96;72.95;96776.83;1805786;79;25221;-76
2022/05/25 00:22:45;;;;;;;13.18;11.45;;;;;;;13.92;72.85;96776.20;1805906;79;26211;-74
2022/05/25 00:25:17;;;;;;;13.28;10.72;;;;;;;13.91;72.95;96777.27;1746059;82;25897;-75
2022/05/25 00:27:43;;;;;;;17.00;12.07;;;;;;;13.90;72.89;96778.34;1746565;82;27530;-74
2022/05/25 00:30:12;;;;;;;14.55;10.90;;;;;;;13.86;72.76;96779.39;1746328;82;25652;-77
2022/05/25 00:32:40;;;;;;;17.05;11.65;;;;;;;13.82;72.79;96782.83;1746361;82;25736;-75
2022/05/25 00:35:11;;;;;;;12.78;11.00;;;;;;;13.78;72.78;96783.84;1746280;82;25530;-76
2022/05/25 00:37:39;;;;;;;11.83;10.63;;;;;;;13.78;72.75;96787.91;1731691;82;25857;-74
2022/05/25 00:40:10;;;;;;;14.50;11.22;;;;;;;13.70;72.62;96796.47;1731634;82;28725;-75
2022/05/25 00:42:37;;;;;;;13.20;11.28;;;;;;;13.60;72.75;96790.34;1730592;81;25878;-73
2022/05/25 00:45:08;;;;;;;14.80;10.75;;;;;;;13.61;72.88;96787.92;1721123;83;25956;-74
2022/05/25 00:47:38;;;;;;;13.60;11.90;;;;;;;13.58;72.87;96791.13;1721236;83;25469;-76
2022/05/25 00:50:06;;;;;;;13.32;11.50;;;;;;;13.57;72.95;96794.08;1721195;83;25797;-74
2022/05/25 00:52:33;;;;;;;13.88;11.63;;;;;;;13.55;73.00;96794.84;1721317;83;27393;-74
2022/05/25 00:55:04;;;;;;;13.48;12.10;;;;;;;13.54;73.04;96790.48;1721258;83;25769;-75
2022/05/25 00:57:41;;;;;;;14.20;11.08;;;;;;;13.52;73.02;96794.00;1721031;83;25792;-76
2022/05/25 01:00:22;;;;;;;17.50;12.05;;;;;;;13.49;73.13;96798.55;1669927;85;26076;-75
2022/05/25 01:02:53;;;;;;;14.45;11.08;;;;;;;13.51;73.26;96799.14;1585912;90;25564;-75
2022/05/25 01:05:30;;;;;;;12.53;10.43;;;;;;;13.50;73.16;96799.67;1499103;94;28044;-74
2022/05/25 01:08:26;;;;;;;13.80;10.48;;;;;;;13.47;73.05;96788.48;1522718;92;26639;-75
2022/05/25 01:11:13;;;;;;;12.88;11.50;;;;;;;13.46;73.11;96799.03;1493916;95;25879;-76
2022/05/25 01:14:03;;;;;;;15.28;12.20;;;;;;;13.43;73.23;96796.80;1522729;92;26317;-76
2022/05/25 01:16:50;;;;;;;16.73;11.78;;;;;;;13.41;73.35;96798.93;1497983;95;25777;-76
2022/05/25 01:19:40;;;;;;;16.15;11.68;;;;;;;13.38;73.48;96803.50;1495990;95;28247;-77
2022/05/25 01:22:48;;;;;;;16.52;12.33;;;;;;;13.31;73.48;96803.64;1497586;95;26006;-74
2022/05/25 01:25:42;;;;;;;13.13;11.53;;;;;;;13.27;73.64;96798.44;1497720;95;25903;-75
2022/05/25 01:28:26;;;;;;;14.45;12.65;;;;;;;13.26;73.69;96794.91;1520434;93;25829;-75
2022/05/25 01:30:56;;;;;;;16.15;12.93;;;;;;;13.24;73.83;96798.38;1431638;99;27000;-74
2022/05/25 01:33:41;;;;;;;15.55;12.78;;;;;;;13.26;73.96;96797.61;1452483;98;27597;-75
2022/05/25 01:36:44;;;;;;;17.90;13.05;;;;;;;13.28;74.01;96804.15;1454731;97;25895;-74
2022/05/25 01:39:17;;;;;;;14.03;12.57;;;;;;;13.10;74.29;96795.64;1412237;100;25990;-76
2022/05/25 01:42:01;;;;;;;14.68;12.30;;;;;;;13.10;74.29;96795.64;1412915;100;25889;-75
2022/05/25 01:44:39;;;;;;;14.30;12.63;;;;;;;13.18;74.36;96810.17;1411238;100;25864;-73
2022/05/25 01:49:50;;;;;;;19.02;14.15;;;;;;;13.21;74.60;96806.98;1373139;104;25934;-75
2022/05/25 01:52:22;;;;;;;17.85;14.13;;;;;;;13.23;74.63;96807.58;1335883;107;25888;-75
2022/05/25 01:54:56;;;;;;;17.48;13.85;;;;;;;13.26;74.65;96810.34;1335895;107;25671;-73
2022/05/25 01:57:26;;;;;;;16.55;13.15;;;;;;;13.27;74.70;96810.10;1324239;107;26132;-73
2022/05/25 01:59:53;;;;;;;15.83;13.13;;;;;;;13.32;74.75;96810.17;1364601;101;27475;-74
2022/05/25 02:05:12;;;;;;;14.90;12.90;;;;;;;13.34;74.82;96809.41;1392754;102;25917;-74
2022/05/25 02:07:56;;;;;;;16.87;12.33;;;;;;;13.38;74.86;96812.99;1389758;101;26046;-74
2022/05/25 02:11:03;;;;;;;15.80;12.58;;;;;;;13.37;74.90;96816.23;1395172;101;25942;-76
2022/05/25 02:13:47;;;;;;;20.17;13.68;;;;;;;13.36;74.97;96805.63;1412779;100;28268;-74
2022/05/25 02:16:50;;;;;;;17.35;12.90;;;;;;;13.38;75.04;96811.64;1422251;100;25975;-74
2022/05/25 02:19:37;;;;;;;15.70;12.60;;;;;;;13.41;75.08;96804.34;1426511;99;25878;-74
2022/05/25 02:22:29;;;;;;;19.65;12.40;;;;;;;13.43;75.08;96806.29;1422073;100;25864;-74
2022/05/25 02:25:10;;;;;;;16.82;12.53;;;;;;;13.43;75.09;96803.05;1451499;98;26495;-73
2022/05/25 02:27:47;;;;;;;15.53;12.70;;;;;;;13.42;75.07;96801.40;1451078;97;27444;-73
2022/05/25 02:30:19;;;;;;;13.43;11.83;;;;;;;13.43;75.07;96802.22;1451479;98;25809;-73
2022/05/25 02:33:02;;;;;;;14.73;12.28;;;;;;;13.43;75.14;96802.22;1452379;96;25854;-73
2022/05/25 02:35:31;;;;;;;15.90;12.88;;;;;;;13.43;75.14;96788.67;1476141;96;25976;-75
2022/05/25 02:38:02;;;;;;;14.73;12.53;;;;;;;13.43;75.19;96784.60;1479180;95;25885;-75
2022/05/25 02:40:29;;;;;;;14.23;12.50;;;;;;;13.45;75.16;96777.87;1479202;95;27626;-73
2022/05/25 02:42:56;;;;;;;18.42;12.73;;;;;;;13.47;75.17;96772.21;1479038;95;25470;-76
2022/05/25 02:45:22;;;;;;;14.47;12.93;;;;;;;13.49;75.18;96769.55;1479096;95;25915;-76
2022/05/25 02:47:50;;;;;;;15.80;12.80;;;;;;;13.52;75.12;96779.09;1481866;94;26000;-74
2022/05/25 02:50:17;;;;;;;16.23;14.07;;;;;;;13.49;75.16;96793.13;1544114;89;25909;-74
2022/05/25 02:52:44;;;;;;;15.45;12.88;;;;;;;13.48;75.25;96800.97;1563156;91;27484;-73
2022/05/25 02:55:11;;;;;;;18.00;14.28;;;;;;;13.49;75.34;96803.97;1572862;91;25812;-73
2022/05/25 02:57:37;;;;;;;15.88;13.03;;;;;;;13.44;75.45;96799.80;1564190;91;25978;-74
2022/05/25 03:00:07;;;;;;;17.35;13.05;;;;;;;13.38;75.53;96795.38;1611941;88;25431;-74
2022/05/25 03:02:34;;;;;;;15.23;13.15;;;;;;;13.38;75.63;96799.44;1643680;87;25777;-74
2022/05/25 03:05:01;;;;;;;15.95;13.35;;;;;;;13.39;75.71;96798.38;1645021;86;27250;-75
2022/05/25 03:07:27;;;;;;;16.10;13.43;;;;;;;13.38;75.84;96804.86;1672482;84;25952;-75
2022/05/25 03:09:54;;;;;;;16.27;14.13;;;;;;;13.39;75.88;96805.16;1689770;84;25833;-76
2022/05/25 03:12:21;;;;;;;16.42;13.83;;;;;;;13.43;75.98;96811.71;1672489;84;25799;-76
2022/05/25 03:14:47;;;;;;;16.42;12.95;;;;;;;13.47;76.00;96810.17;1689686;84;25804;-74
2022/05/25 03:17:15;;;;;;;15.30;13.08;;;;;;;13.50;75.98;96811.05;1669619;85;27381;-74
2022/05/25 03:19:45;;;;;;;20.95;13.88;;;;;;;13.52;75.98;96814.34;1688973;83;25803;-74
2022/05/25 03:22:11;;;;;;;18.32;13.83;;;;;;;13.54;76.04;96806.76;1771977;79;25772;-74
2022/05/25 03:24:38;;;;;;;18.75;13.85;;;;;;;13.57;76.11;96811.70;1814412;79;26360;-76
2022/05/25 03:27:05;;;;;;;17.52;14.30;;;;;;;13.58;76.18;96816.88;1814408;79;25644;-74
2022/05/25 03:29:32;;;;;;;15.10;13.45;;;;;;;13.57;76.20;96811.70;1814053;79;27431;-75
2022/05/25 03:32:00;;;;;;;14.95;12.98;;;;;;;13.59;76.27;96809.57;1814136;79;26297;-74
2022/05/25 03:34:27;;;;;;;17.95;14.20;;;;;;;13.63;76.28;96818.34;1814270;79;25675;-76
2022/05/25 03:36:57;;;;;;;17.23;13.98;;;;;;;13.67;76.25;96822.19;1814203;79;25746;-73
2022/05/25 03:42:00;;;;;;;18.35;13.50;;;;;;;13.76;76.17;96813.13;1750359;81;27551;-74
2022/05/25 03:44:27;;;;;;;16.73;13.38;;;;;;;13.80;76.20;96816.16;1708817;83;25852;-73
2022/05/25 03:46:53;;;;;;;19.85;15.05;;;;;;;13.83;76.22;96816.50;1742183;82;25742;-74
2022/05/25 03:49:20;;;;;;;17.17;15.32;;;;;;;13.84;76.22;96827.64;1709063;83;25753;-74
2022/05/25 03:51:47;;;;;;;18.30;14.47;;;;;;;13.84;76.21;96837.13;1742225;82;25769;-73
2022/05/25 03:54:13;;;;;;;20.02;15.45;;;;;;;13.84;76.22;96837.13;1709109;83;28159;-74
2022/05/25 03:56:40;;;;;;;18.80;14.87;;;;;;;13.87;76.21;96838.00;1742075;82;25772;-73
2022/05/25 03:59:07;;;;;;;20.48;15.93;;;;;;;13.90;76.21;96834.78;1709032;83;25965;-75
2022/05/25 04:01:36;;;;;;;19.52;14.98;;;;;;;13.93;76.11;96842.43;1742099;82;26260;-73
2022/05/25 04:04:04;;;;;;;17.27;15.43;;;;;;;13.92;76.04;96839.42;1708981;83;25835;-75
2022/05/25 04:06:31;;;;;;;17.52;15.10;;;;;;;13.92;76.06;96842.14;1741990;82;28125;-73
2022/05/25 04:08:57;;;;;;;17.37;14.53;;;;;;;13.93;76.15;96837.00;1708926;83;25779;-73
2022/05/25 04:11:24;;;;;;;19.23;14.60;;;;;;;13.93;76.14;96837.00;1742364;82;26563;-75
2022/05/25 04:13:51;;;;;;;16.32;14.58;;;;;;;13.94;76.23;96836.47;1709091;83;25702;-75
2022/05/25 04:16:17;;;;;;;20.68;15.45;;;;;;;13.91;76.40;96831.00;1742430;81;25786;-73
2022/05/25 04:18:44;;;;;;;19.37;15.25;;;;;;;13.85;76.48;96833.36;1716954;83;27608;-75
2022/05/25 04:21:10;;;;;;;19.57;15.28;;;;;;;13.82;76.63;96835.20;1716981;83;25874;-73
2022/05/25 04:23:37;;;;;;;17.60;15.55;;;;;;;13.79;76.65;96828.89;1716805;83;26332;-73
2022/05/25 04:26:04;;;;;;;20.37;15.83;;;;;;;13.82;76.72;96829.77;1717085;83;25704;-73
2022/05/25 04:28:31;;;;;;;19.70;15.48;;;;;;;13.85;76.80;96825.75;1717127;83;25735;-74
2022/05/25 04:30:58;;;;;;;18.23;15.48;;;;;;;13.86;76.77;96824.16;1717178;83;27536;-73
2022/05/25 04:33:27;;;;;;;21.85;16.02;;;;;;;13.89;76.79;96830.42;1717006;83;25762;-73
2022/05/25 04:35:53;;;;;;;19.48;14.63;;;;;;;13.94;76.72;96825.63;1716891;83;25835;-74
2022/05/25 04:38:19;;;;;;;20.80;16.32;;;;;;;13.98;76.78;96821.36;1717352;83;25731;-75
2022/05/25 04:40:46;;;;;;;22.25;15.55;;;;;;;13.97;76.83;96815.11;1717105;83;25753;-74
2022/05/25 04:43:18;;;;;;;20.15;15.63;;;;;;;14.00;76.87;96805.66;1717172;83;27376;-73
2022/05/25 04:45:48;;;;;;;17.30;15.33;;;;;;;14.00;76.99;96805.13;1751297;81;26318;-74
2022/05/25 04:48:19;;;;;;;22.25;16.00;;;;;;;14.02;76.99;96808.38;1770453;81;25809;-74
2022/05/25 04:50:47;;;;;;;20.97;17.10;;;;;;;14.06;77.06;96816.86;1770451;81;26357;-74
2022/05/25 04:53:18;;;;;;;20.70;17.55;;;;;;;14.11;77.06;96817.48;1770771;80;26200;-76
2022/05/25 04:58:35;;;;;;;26.25;17.65;;;;;;;14.20;77.12;96822.78;1770488;81;25845;-75
2022/05/25 05:01:04;;;;;;;24.30;16.30;;;;;;;14.24;77.10;96825.30;1739305;81;25875;-76
2022/05/25 05:03:31;;;;;;;19.23;16.32;;;;;;;14.28;77.14;96823.17;1739249;81;25740;-75
2022/05/25 05:05:59;;;;;;;23.70;17.20;;;;;;;14.28;77.28;96825.06;1739305;81;25793;-76
2022/05/25 05:08:27;;;;;;;21.17;16.77;;;;;;;14.22;77.36;96822.00;1770838;79;27565;-76
2022/05/25 05:10:54;;;;;;;20.37;16.37;;;;;;;14.21;77.50;96834.75;1796969;79;25741;-76
2022/05/25 05:13:21;;;;;;;20.15;16.62;;;;;;;14.23;77.59;96838.58;1797127;79;25744;-75
2022/05/25 05:15:52;;;;;;;19.98;16.70;;;;;;;14.22;77.74;96828.78;1797206;79;25778;-78
2022/05/25 05:18:21;;;;;;;19.35;16.27;;;;;;;14.23;77.77;96823.11;1710528;83;25338;-75
2022/05/25 05:20:47;;;;;;;20.57;16.07;;;;;;;14.21;77.62;96823.89;1710635;82;27401;-76
2022/05/25 05:23:14;;;;;;;21.00;16.65;;;;;;;14.23;77.76;96821.75;1710895;82;25795;-75
2022/05/25 05:25:42;;;;;;;24.45;17.65;;;;;;;14.22;77.70;96822.82;1710415;83;25863;-76
2022/05/25 05:28:15;;;;;;;20.43;17.55;;;;;;;14.23;77.75;96826.36;1710682;82;25805;-77
2022/05/25 05:30:56;;;;;;;19.25;17.07;;;;;;;14.29;77.88;96829.42;1698847;84;25783;-75
2022/05/25 05:33:26;;;;;;;21.43;16.87;;;;;;;14.34;77.95;96830.87;1699059;83;27393;-78
2022/05/25 05:36:01;;;;;;;20.10;18.02;;;;;;;14.41;77.99;96832.89;1698670;83;25827;-76
2022/05/25 05:38:29;;;;;;;21.37;17.30;;;;;;;14.47;78.01;96830.55;1612717;88;25971;-75
2022/05/25 05:40:56;;;;;;;21.20;18.98;;;;;;;14.54;77.90;96829.00;1613814;88;25876;-76
2022/05/25 05:43:23;;;;;;;26.35;23.38;;;;;;;14.59;77.89;96814.97;1613733;88;25837;-76
2022/05/25 05:45:53;;;;;;;23.35;20.20;;;;;;;14.67;77.97;96818.61;1613783;88;28271;-76
2022/05/25 05:48:26;;;;;;;22.48;18.32;;;;;;;14.73;78.02;96812.72;1613658;88;25794;-76
2022/05/25 05:50:55;;;;;;;24.40;18.30;;;;;;;14.78;78.04;96812.23;1613743;88;25810;-76
2022/05/25 05:53:24;;;;;;;19.10;17.12;;;;;;;14.87;78.01;96814.49;1613761;88;25951;-76
2022/05/25 05:55:51;;;;;;;18.87;16.70;;;;;;;14.94;78.15;96811.06;1613851;88;25769;-76
2022/05/25 05:58:18;;;;;;;21.40;16.80;;;;;;;15.03;78.23;96805.46;1613610;88;27604;-75
2022/05/25 06:00:45;;;;;;;21.37;18.25;;;;;;;15.10;78.33;96808.80;1613738;88;25897;-77
2022/05/25 06:03:13;;;;;;;23.40;19.80;;;;;;;15.19;78.34;96801.85;1613559;88;25881;-77
2022/05/25 06:05:40;;;;;;;23.22;20.10;;;;;;;15.28;78.23;96801.67;1613773;88;26778;-77
2022/05/25 06:08:12;;;;;;;24.25;19.15;;;;;;;15.36;78.18;96808.00;1613763;88;25762;-76
2022/05/25 06:10:39;;;;;;;21.87;17.83;;;;;;;15.46;78.13;96801.30;1613994;88;27594;-76
2022/05/25 06:13:07;;;;;;;25.88;18.55;;;;;;;15.56;78.07;96801.17;1613759;88;25846;-76
2022/05/25 06:21:06;;;;;;;25.25;17.57;;;;;;;15.86;77.56;96812.32;1821469;78;25780;-76
2022/05/25 06:23:33;;;;;;;21.07;17.32;;;;;;;15.93;77.25;96811.58;1821601;78;28323;-76
2022/05/25 06:26:00;;;;;;;21.27;16.85;;;;;;;16.01;77.07;96813.81;1821478;78;26321;-76
2022/05/25 06:28:26;;;;;;;22.55;18.05;;;;;;;16.08;76.89;96811.69;1836592;78;25740;-76
2022/05/25 06:30:53;;;;;;;21.55;17.98;;;;;;;16.15;76.81;96805.49;1839117;78;25411;-75
2022/05/25 06:33:21;;;;;;;20.80;17.20;;;;;;;16.23;76.66;96800.09;1839194;78;25708;-75
2022/05/25 06:35:47;;;;;;;22.65;17.67;;;;;;;16.30;76.46;96808.84;1839071;78;27362;-75
2022/05/25 06:38:14;;;;;;;20.72;17.12;;;;;;;16.37;76.17;96811.35;1839124;78;25652;-75
2022/05/25 06:40:41;;;;;;;21.75;18.00;;;;;;;16.39;75.99;96809.19;1839029;78;25648;-76
2022/05/25 06:43:07;;;;;;;22.25;17.52;;;;;;;16.45;76.07;96802.14;1839091;78;25681;-76
2022/05/25 06:45:34;;;;;;;18.55;16.57;;;;;;;16.53;76.14;96794.03;1839303;78;25688;-75
2022/05/25 06:48:04;;;;;;;23.60;17.60;;;;;;;16.61;76.16;96804.42;1839118;76;27346;-76
2022/05/25 06:50:30;;;;;;;19.35;17.35;;;;;;;16.70;76.04;96806.95;1838961;77;25688;-75
2022/05/25 06:52:57;;;;;;;24.85;18.40;;;;;;;16.79;75.90;96803.98;1839142;78;25680;-75
2022/05/25 06:55:24;;;;;;;20.40;17.02;;;;;;;16.85;75.86;96789.31;1838771;78;26247;-76
2022/05/25 06:57:50;;;;;;;18.12;16.20;;;;;;;16.95;75.75;96784.98;1839244;78;25689;-75
2022/05/25 07:00:17;;;;;;;17.67;15.68;;;;;;;17.04;75.72;96780.64;1839140;78;27427;-75
2022/05/25 07:02:44;;;;;;;17.55;15.58;;;;;;;17.09;75.46;96780.12;1839069;78;25667;-76
2022/05/25 07:05:11;;;;;;;21.20;15.28;;;;;;;17.11;75.06;96773.88;1839126;78;25704;-75
2022/05/25 07:07:38;;;;;;;17.15;12.63;;;;;;;17.16;74.73;96775.77;1838917;78;25713;-76
2022/05/25 07:10:05;;;;;;;16.27;13.08;;;;;;;17.18;74.24;96783.15;1838965;78;25703;-75
2022/05/25 07:12:32;;;;;;;21.90;14.53;;;;;;;17.21;74.02;96776.63;1839043;77;27337;-75
2022/05/25 07:14:59;;;;;;;16.12;14.43;;;;;;;17.27;73.99;96767.89;1838908;78;25187;-75
2022/05/25 07:17:25;;;;;;;16.62;14.98;;;;;;;17.31;73.99;96764.91;1839182;77;26358;-75
2022/05/25 07:19:52;;;;;;;18.85;14.18;;;;;;;17.39;74.23;96756.19;1841787;77;25665;-75
2022/05/25 07:22:18;;;;;;;16.65;13.62;;;;;;;17.50;74.10;96757.88;1842186;77;25692;-75
2022/05/25 07:24:45;;;;;;;15.75;13.90;;;;;;;17.62;73.91;96752.97;1842352;77;28270;-75
2022/05/25 07:27:12;;;;;;;17.27;13.88;;;;;;;17.75;73.59;96764.48;1842261;77;25685;-74
2022/05/25 07:29:38;;;;;;;19.10;14.23;;;;;;;17.84;73.25;96762.83;1842115;77;25586;-75
2022/05/25 07:32:09;;;;;;;19.60;15.25;;;;;;;17.96;73.22;96756.55;1842145;77;26288;-75
2022/05/25 07:34:50;;;;;;;19.92;15.98;;;;;;;18.11;73.29;96757.09;1842244;77;25959;-76
2022/05/25 07:37:21;;;;;;;20.72;15.80;;;;;;;18.27;73.45;96748.58;1760182;81;27410;-76
2022/05/25 07:39:58;;;;;;;21.55;15.48;;;;;;;18.54;73.33;96739.23;1760659;81;25773;-75
2022/05/25 07:42:26;;;;;;;19.57;13.90;;;;;;;18.74;72.99;96741.91;1757203;81;25801;-75
2022/05/25 07:44:57;;;;;;;17.10;13.45;;;;;;;18.95;72.63;96735.83;1735475;81;26279;-77
2022/05/25 07:47:26;;;;;;;14.50;12.25;;;;;;;19.19;72.41;96743.64;1760753;81;26002;-75
2022/05/25 07:49:52;;;;;;;14.95;11.55;;;;;;;19.51;71.63;96743.19;1760616;80;27617;-75
2022/05/25 07:52:21;;;;;;;14.68;11.30;;;;;;;19.75;71.29;96750.95;1760333;81;25591;-76
2022/05/25 07:54:48;;;;;;;13.90;11.03;;;;;;;20.02;71.49;96740.88;1760618;81;25319;-76
2022/05/25 07:57:15;;;;;;;13.45;10.63;;;;;;;20.25;71.16;96755.73;1760858;81;25834;-75
2022/05/25 07:59:42;;;;;;;14.95;11.10;;;;;;;20.32;70.03;96754.83;1761082;81;25681;-75
2022/05/25 08:08:03;;;;;;;12.63;9.83;;;;;;;20.43;68.76;96759.13;1760579;81;25754;-76
2022/05/25 08:10:30;;;;;;;15.18;10.65;;;;;;;20.54;68.76;96760.39;1760944;81;25739;-76
2022/05/25 08:12:59;;;;;;;12.75;11.10;;;;;;;20.54;68.29;96738.45;1761009;81;25785;-75
2022/05/25 08:15:28;;;;;;;12.90;11.40;;;;;;;20.49;67.90;96751.12;1760816;81;27384;-75
2022/05/25 08:17:55;;;;;;;14.38;11.10;;;;;;;20.49;67.90;96751.12;1759662;80;26535;-77
2022/05/25 08:20:22;;;;;;;13.55;10.85;;;;;;;20.29;68.02;96752.66;1757675;81;25777;-78
2022/05/25 08:22:50;;;;;;;18.07;10.82;;;;;;;20.11;68.24;96724.63;1758015;80;25710;-76
2022/05/25 08:25:18;;;;;;;19.65;11.12;;;;;;;20.34;68.13;96756.73;1757500;81;25368;-77
2022/05/25 08:27:45;;;;;;;17.80;10.43;;;;;;;20.39;68.08;96751.24;1798782;78;27366;-76
2022/05/25 08:30:17;;;;;;;16.42;10.70;;;;;;;20.63;67.96;96753.19;1821401;78;25761;-76
2022/05/25 08:32:44;;;;;;;13.48;9.98;;;;;;;20.63;67.96;96753.19;1760787;81;25941;-76
2022/05/25 08:35:11;;;;;;;12.28;9.15;;;;;;;20.74;67.58;96756.07;1779114;80;26147;-77
2022/05/25 08:37:38;;;;;;;15.43;9.48;;;;;;;20.85;67.17;96763.06;1758840;81;25883;-75
2022/05/25 08:40:06;;;;;;;17.65;9.28;;;;;;;20.88;66.85;96750.15;1759034;81;28122;-75
2022/05/25 08:42:38;;;;;;;14.30;9.95;;;;;;;20.82;67.04;96759.53;1758748;81;25691;-76
2022/05/25 08:45:06;;;;;;;14.30;9.55;;;;;;;20.85;66.59;96768.55;1772144;80;32369;-77
2022/05/25 08:47:35;;;;;;;11.68;9.20;;;;;;;20.84;66.12;96772.41;1758875;81;25800;-76
2022/05/25 08:50:02;;;;;;;10.50;8.73;;;;;;;20.82;65.75;96769.13;1758956;81;25734;-75
2022/05/25 08:52:33;;;;;;;10.88;8.83;;;;;;;20.72;65.76;96754.17;1759030;81;27456;-73
2022/05/25 08:55:04;;;;;;;9.50;8.43;;;;;;;20.91;65.60;96762.44;1758869;81;25300;-74
2022/05/25 08:57:47;;;;;;;12.00;9.68;;;;;;;20.94;65.95;96746.77;1758885;81;26001;-75
2022/05/25 09:00:18;;;;;;;13.22;9.55;;;;;;;20.94;65.95;96746.77;1746384;82;25708;-77
2022/05/25 09:03:27;;;;;;;9.45;7.92;;;;;;;21.24;66.04;96746.42;1746670;82;25328;-78
2022/05/25 09:06:02;;;;;;;10.82;8.20;;;;;;;21.89;66.07;96761.09;1685221;85;27260;-76
2022/05/25 09:08:43;;;;;;;12.18;8.20;;;;;;;22.17;64.95;96763.97;1680672;85;25925;-76
2022/05/25 09:11:18;;;;;;;11.85;10.20;;;;;;;22.10;64.29;96771.20;1598018;89;25892;-77
2022/05/25 09:14:06;;;;;;;11.25;9.75;;;;;;;22.03;63.76;96777.66;1583959;90;25929;-76
2022/05/25 09:16:36;;;;;;;13.93;10.32;;;;;;;21.92;63.56;96778.35;1584297;90;25869;-76
2022/05/25 09:19:07;;;;;;;11.55;10.35;;;;;;;21.70;63.36;96782.27;1583725;90;27433;-75
2022/05/25 09:21:52;;;;;;;13.95;10.18;;;;;;;21.53;63.50;96776.47;1574509;91;25878;-77
2022/05/25 09:24:23;;;;;;;14.53;10.38;;;;;;;21.39;63.41;96779.69;1574653;91;25786;-76
2022/05/25 09:26:51;;;;;;;13.48;10.72;;;;;;;21.28;63.46;96782.31;1574806;91;25831;-75
2022/05/25 09:29:20;;;;;;;16.42;11.40;;;;;;;21.15;63.61;96781.88;1574608;91;25837;-76
2022/05/25 09:31:58;;;;;;;11.75;9.98;;;;;;;21.08;63.38;96788.30;1574531;91;27446;-76
2022/05/25 09:34:47;;;;;;;13.95;10.55;;;;;;;20.91;63.48;96790.69;1511614;94;25818;-76
2022/05/25 09:37:31;;;;;;;13.35;11.33;;;;;;;20.65;63.75;96785.25;1513313;94;25820;-78
2022/05/25 09:40:07;;;;;;;16.10;13.00;;;;;;;20.36;64.61;96779.22;1515573;94;25918;-80
2022/05/25 09:42:37;;;;;;;15.65;12.50;;;;;;;20.15;65.48;96791.45;1487461;96;26056;-78
2022/05/25 09:45:14;;;;;;;15.23;12.25;;;;;;;20.10;66.26;96786.00;1487530;96;27559;-80
2022/05/25 09:47:46;;;;;;;18.17;13.98;;;;;;;20.19;66.49;96787.01;1486390;95;25983;-80
2022/05/25 09:50:35;;;;;;;18.15;14.38;;;;;;;20.26;67.20;96786.14;1513006;94;26002;-81
2022/05/25 09:53:09;;;;;;;15.65;13.22;;;;;;;20.29;67.58;96783.35;1494692;95;26368;-77
2022/05/25 09:55:44;;;;;;;18.15;14.10;;;;;;;20.30;67.87;96783.07;1494884;95;25710;-79
2022/05/25 09:58:31;;;;;;;15.63;14.03;;;;;;;20.37;67.79;96781.41;1494541;95;27507;-78
2022/05/25 10:01:03;;;;;;;15.93;13.40;;;;;;;20.45;67.56;96786.25;1472744;97;25860;-78
2022/05/25 10:03:42;;;;;;;17.07;13.55;;;;;;;20.50;67.65;96787.59;1489596;94;25799;-78
2022/05/25 10:06:34;;;;;;;15.18;12.68;;;;;;;20.52;67.54;96783.19;1493499;96;25786;-77
2022/05/25 10:09:23;;;;;;;15.07;13.00;;;;;;;20.54;67.44;96796.03;1495288;94;25861;-80
2022/05/25 10:11:57;;;;;;;19.95;13.35;;;;;;;20.55;67.11;96785.33;1505981;95;27431;-77
2022/05/25 10:14:39;;;;;;;14.85;12.25;;;;;;;20.55;67.06;96782.59;1468316;97;25645;-79
2022/05/25 10:17:15;;;;;;;15.85;14.18;;;;;;;20.53;66.91;96782.88;1468426;97;25941;-77
2022/05/25 10:19:51;;;;;;;16.65;14.33;;;;;;;20.55;67.44;96782.59;1462859;97;25760;-77
2022/05/25 10:22:46;;;;;;;16.07;13.48;;;;;;;20.58;67.36;96782.83;1477221;95;25943;-77
2022/05/25 10:25:42;;;;;;;15.78;13.30;;;;;;;20.65;67.27;96788.78;1456124;97;27426;-77
2022/05/25 10:28:35;;;;;;;15.95;13.40;;;;;;;20.70;67.31;96793.41;1454951;98;25902;-77
2022/05/25 10:37:17;;;;;;;15.15;13.30;;;;;;;21.05;66.36;96786.13;1514741;94;25940;-76
2022/05/25 10:39:55;;;;;;;;;;;;;;;21.11;66.54;96791.84;1523142;92;27446;-77
2022/05/25 10:42:45;;;;;;;20.75;14.28;;;;;;;21.16;66.73;96794.50;1532608;92;25781;-76
2022/05/25 10:45:22;;;;;;;16.73;13.48;;;;;;;21.18;66.42;96788.20;1532666;92;25842;-78
2022/05/25 10:48:07;;;;;;;17.87;13.85;;;;;;;21.07;65.69;96793.52;1563289;91;25954;-77
2022/05/25 10:50:34;;;;;;;14.98;13.40;;;;;;;20.89;65.84;96775.66;1573772;91;25742;-75
2022/05/25 10:53:09;;;;;;;14.25;12.80;;;;;;;20.99;65.99;96791.44;1541742;91;28131;-75
2022/05/25 10:55:58;;;;;;;17.23;13.48;;;;;;;21.01;65.79;96796.05;1566839;91;25803;-76
2022/05/25 10:59:02;;;;;;;16.62;12.55;;;;;;;21.00;65.54;96797.19;1542942;92;25424;-77
2022/05/25 11:02:12;;;;;;;14.60;11.60;;;;;;;20.97;65.64;96799.14;1586850;87;25633;-76
2022/05/25 11:05:11;;;;;;;11.68;10.40;;;;;;;20.98;65.49;96799.41;1592080;90;25836;-76
2022/05/25 11:07:41;;;;;;;14.07;10.28;;;;;;;20.84;64.71;96803.95;1630663;87;28321;-77
2022/05/25 11:10:44;;;;;;;15.03;11.18;;;;;;;20.84;64.71;96803.95;1591972;90;25770;-75
2022/05/25 11:13:37;;;;;;;12.75;9.80;;;;;;;20.79;65.05;96795.77;1632623;87;25843;-76
2022/05/25 11:16:19;;;;;;;;;;;;;;;20.71;65.01;96807.37;1594666;90;26163;-76
2022/05/25 11:19:06;;;;;;;15.07;10.83;;;;;;;20.70;64.74;96801.63;1717645;79;25706;-76
2022/05/25 11:22:02;;;;;;;12.68;10.65;;;;;;;20.71;64.75;96797.78;1838731;78;28088;-76
2022/05/25 11:24:40;;;;;;;11.50;9.60;;;;;;;20.73;64.75;96801.06;1817391;78;25708;-75
2022/05/25 11:27:35;;;;;;;13.32;9.63;;;;;;;20.73;64.75;96801.06;1820118;78;25731;-76
2022/05/25 11:30:34;;;;;;;13.10;10.25;;;;;;;20.72;64.81;96798.05;1779862;80;26454;-77
2022/05/25 11:33:15;;;;;;;17.65;14.38;;;;;;;20.73;64.78;96807.36;1778929;80;25796;-76
2022/05/25 11:36:13;;;;;;;19.85;14.87;;;;;;;20.66;64.62;96823.32;1779701;79;26509;-77
2022/05/25 11:39:25;;;;;;;14.07;12.58;;;;;;;20.27;64.51;96823.95;1779849;80;25723;-76
2022/05/25 11:42:43;;;;;;;12.88;11.15;;;;;;;19.89;65.06;96825.07;1776126;80;25326;-78
2022/05/25 11:45:35;;;;;;;12.25;10.35;;;;;;;19.44;65.58;96830.25;1779763;80;25471;-75
2022/05/25 11:48:26;;;;;;;11.30;10.00;;;;;;;19.32;66.24;96844.23;1780033;80;25732;-77
2022/05/25 11:51:24;;;;;;;11.70;10.50;;;;;;;19.20;66.71;96846.48;1779900;80;28303;-75
2022/05/25 11:54:05;;;;;;;12.03;10.82;;;;;;;19.04;66.96;96843.00;1779751;80;25914;-77
2022/05/25 11:56:54;;;;;;;12.68;10.95;;;;;;;18.77;67.66;96845.26;1779738;80;25310;-76
2022/05/25 11:59:46;;;;;;;12.58;11.33;;;;;;;18.72;67.78;96856.19;1726416;83;26204;-77
2022/05/25 12:02:45;;;;;;;11.18;10.05;;;;;;;18.67;67.97;96853.48;1682712;84;26416;-76
2022/05/25 12:05:53;;;;;;;13.18;10.03;;;;;;;18.67;68.23;96848.02;1696476;82;28233;-77
2022/05/25 12:08:47;;;;;;;10.18;8.93;;;;;;;18.59;68.32;96854.88;1698168;84;25837;-76
2022/05/25 12:11:38;;;;;;;11.28;10.20;;;;;;;18.62;68.13;96854.84;1701097;84;25742;-78
2022/05/25 12:14:13;;;;;;;11.50;9.90;;;;;;;18.58;68.17;96861.98;1695876;84;25604;-75
2022/05/25 12:16:42;;;;;;;11.18;10.08;;;;;;;18.56;68.22;96862.22;1695328;83;25819;-75
2022/05/25 12:19:28;;;;;;;10.45;9.43;;;;;;;18.51;68.26;96865.49;1613474;88;27521;-75